sensor_id;sensor_type;location;lat;lon;timestamp;pressure;altitude;pressure_sealevel;temperature;humidity
13434;BME280;6789;47.678;9.158;2022-07-29T00:03:12;96688.91;;;21.85;78.26
13434;BME280;6789;47.678;9.158;2022-07-29T00:08:18;96682.56;;;21.81;78.62
13434;BME280;6789;47.678;9.158;2022-07-29T00:13:10;96692.06;;;21.60;80.59
13434;BME280;6789;47.678;9.158;2022-07-29T00:18:02;96678.50;;;21.07;83.49
13434;BME280;6789;47.678;9.158;2022-07-29T00:22:54;96668.94;;;20.69;85.64
13434;BME280;6789;47.678;9.158;2022-07-29T00:27:46;96673.34;;;20.60;86.17
13434;BME280;6789;47.678;9.158;2022-07-29T00:32:38;96663.53;;;20.56;87.31
13434;BME280;6789;47.678;9.158;2022-07-29T00:37:30;96661.94;;;20.36;88.10
13434;BME280;6789;47.678;9.158;2022-07-29T00:42:22;96657.88;;;20.20;89.48
13434;BME280;6789;47.678;9.158;2022-07-29T00:47:14;96651.47;;;20.21;89.96
13434;BME280;6789;47.678;9.158;2022-07-29T00:52:08;96644.34;;;20.17;90.14
13434;BME280;6789;47.678;9.158;2022-07-29T00:57:01;96639.16;;;20.07;90.71
13434;BME280;6789;47.678;9.158;2022-07-29T01:02:07;96643.81;;;20.57;87.38
13434;BME280;6789;47.678;9.158;2022-07-29T01:07:03;96642.84;;;21.03;85.59
13434;BME280;6789;47.678;9.158;2022-07-29T01:12:11;96642.13;;;20.97;85.18
13434;BME280;6789;47.678;9.158;2022-07-29T01:17:20;96631.25;;;20.57;87.94
13434;BME280;6789;47.678;9.158;2022-07-29T01:33:01;96619.25;;;20.41;88.93
13434;BME280;6789;47.678;9.158;2022-07-29T01:38:21;96614.34;;;20.48;88.61
13434;BME280;6789;47.678;9.158;2022-07-29T01:43:21;96606.63;;;20.47;88.45
13434;BME280;6789;47.678;9.158;2022-07-29T01:48:31;96601.06;;;20.07;90.81
13434;BME280;6789;47.678;9.158;2022-07-29T01:53:38;96601.31;;;20.28;88.81
13434;BME280;6789;47.678;9.158;2022-07-29T01:58:36;96605.97;;;20.55;87.57
13434;BME280;6789;47.678;9.158;2022-07-29T02:03:33;96602.22;;;20.01;90.79
13434;BME280;6789;47.678;9.158;2022-07-29T02:08:29;96605.75;;;20.14;89.02
13434;BME280;6789;47.678;9.158;2022-07-29T02:13:37;96611.31;;;20.36;88.27
13434;BME280;6789;47.678;9.158;2022-07-29T02:18:30;96613.09;;;19.81;91.03
13434;BME280;6789;47.678;9.158;2022-07-29T02:23:24;96609.69;;;19.52;93.35
13434;BME280;6789;47.678;9.158;2022-07-29T02:28:17;96606.41;;;19.83;91.71
13434;BME280;6789;47.678;9.158;2022-07-29T02:33:14;96605.22;;;19.94;91.20
13434;BME280;6789;47.678;9.158;2022-07-29T02:38:13;96612.75;;;19.87;90.65
13434;BME280;6789;47.678;9.158;2022-07-29T02:43:25;96609.59;;;20.45;87.55
13434;BME280;6789;47.678;9.158;2022-07-29T02:48:22;96612.81;;;20.06;90.06
13434;BME280;6789;47.678;9.158;2022-07-29T02:53:25;96614.63;;;19.87;90.90
13434;BME280;6789;47.678;9.158;2022-07-29T02:58:43;96603.00;;;19.78;91.76
13434;BME280;6789;47.678;9.158;2022-07-29T03:03:38;96605.97;;;19.76;91.55
13434;BME280;6789;47.678;9.158;2022-07-29T03:08:32;96614.56;;;20.15;89.08
13434;BME280;6789;47.678;9.158;2022-07-29T03:13:25;96616.16;;;20.34;88.58
13434;BME280;6789;47.678;9.158;2022-07-29T03:18:18;96619.59;;;20.16;89.96
13434;BME280;6789;47.678;9.158;2022-07-29T03:23:10;96611.16;;;20.09;90.17
13434;BME280;6789;47.678;9.158;2022-07-29T03:28:02;96617.81;;;20.30;89.20
13434;BME280;6789;47.678;9.158;2022-07-29T03:32:54;96612.75;;;20.47;87.81
13434;BME280;6789;47.678;9.158;2022-07-29T03:38:00;96612.25;;;20.64;86.82
13434;BME280;6789;47.678;9.158;2022-07-29T03:43:22;96616.34;;;20.56;87.20
13434;BME280;6789;47.678;9.158;2022-07-29T03:48:21;96612.16;;;20.13;89.15
13434;BME280;6789;47.678;9.158;2022-07-29T03:53:23;96609.28;;;20.10;90.67
13434;BME280;6789;47.678;9.158;2022-07-29T03:58:16;96610.19;;;20.42;88.49
13434;BME280;6789;47.678;9.158;2022-07-29T04:03:10;96627.66;;;20.48;88.26
13434;BME280;6789;47.678;9.158;2022-07-29T04:08:16;96618.31;;;20.51;88.01
13434;BME280;6789;47.678;9.158;2022-07-29T04:13:08;96621.06;;;20.46;88.31
13434;BME280;6789;47.678;9.158;2022-07-29T04:18:14;96623.97;;;20.81;87.43
13434;BME280;6789;47.678;9.158;2022-07-29T04:23:08;96621.25;;;21.76;82.78
13434;BME280;6789;47.678;9.158;2022-07-29T04:28:09;96636.66;;;22.33;77.51
13434;BME280;6789;47.678;9.158;2022-07-29T04:33:16;96645.75;;;22.05;79.94
13434;BME280;6789;47.678;9.158;2022-07-29T04:38:21;96647.16;;;21.31;83.78
13434;BME280;6789;47.678;9.158;2022-07-29T04:43:27;96637.19;;;21.23;84.36
13434;BME280;6789;47.678;9.158;2022-07-29T04:48:27;96626.72;;;20.94;85.05
13434;BME280;6789;47.678;9.158;2022-07-29T04:53:19;96651.63;;;21.35;83.61
13434;BME280;6789;47.678;9.158;2022-07-29T04:58:12;96651.66;;;20.85;85.94
13434;BME280;6789;47.678;9.158;2022-07-29T05:03:04;96650.22;;;20.74;86.76
13434;BME280;6789;47.678;9.158;2022-07-29T05:07:56;96646.53;;;20.52;87.69
13434;BME280;6789;47.678;9.158;2022-07-29T05:12:56;96652.94;;;20.69;87.57
13434;BME280;6789;47.678;9.158;2022-07-29T05:17:52;96639.84;;;20.54;87.97
13434;BME280;6789;47.678;9.158;2022-07-29T05:23:00;96643.78;;;20.38;89.48
13434;BME280;6789;47.678;9.158;2022-07-29T05:27:53;96650.84;;;20.48;88.81
13434;BME280;6789;47.678;9.158;2022-07-29T05:32:46;96654.94;;;20.59;87.89
13434;BME280;6789;47.678;9.158;2022-07-29T05:37:42;96643.22;;;20.60;88.87
13434;BME280;6789;47.678;9.158;2022-07-29T05:42:35;96646.53;;;20.33;89.98
13434;BME280;6789;47.678;9.158;2022-07-29T05:47:41;96650.13;;;20.24;91.10
13434;BME280;6789;47.678;9.158;2022-07-29T05:52:35;96639.31;;;20.15;92.52
13434;BME280;6789;47.678;9.158;2022-07-29T05:57:31;96637.72;;;20.14;93.12
13434;BME280;6789;47.678;9.158;2022-07-29T06:02:23;96645.16;;;20.17;93.65
13434;BME280;6789;47.678;9.158;2022-07-29T06:07:16;96636.94;;;20.14;94.27
13434;BME280;6789;47.678;9.158;2022-07-29T06:12:12;96649.56;;;20.45;93.12
13434;BME280;6789;47.678;9.158;2022-07-29T06:17:12;96657.44;;;20.92;90.53
13434;BME280;6789;47.678;9.158;2022-07-29T06:22:08;96671.41;;;20.84;89.67
13434;BME280;6789;47.678;9.158;2022-07-29T06:27:13;96663.78;;;21.09;87.48
13434;BME280;6789;47.678;9.158;2022-07-29T06:32:20;96654.94;;;21.59;84.85
13434;BME280;6789;47.678;9.158;2022-07-29T06:37:27;96666.75;;;21.98;83.94
13434;BME280;6789;47.678;9.158;2022-07-29T06:42:32;96666.22;;;22.23;82.47
13434;BME280;6789;47.678;9.158;2022-07-29T06:47:38;96681.66;;;22.66;78.76
13434;BME280;6789;47.678;9.158;2022-07-29T06:52:31;96676.31;;;23.02;79.00
13434;BME280;6789;47.678;9.158;2022-07-29T06:57:37;96676.88;;;22.77;80.35
13434;BME280;6789;47.678;9.158;2022-07-29T07:02:46;96669.59;;;22.91;79.48
13434;BME280;6789;47.678;9.158;2022-07-29T07:08:02;96686.34;;;22.83;79.77
13434;BME280;6789;47.678;9.158;2022-07-29T07:13:04;96704.66;;;23.46;76.69
13434;BME280;6789;47.678;9.158;2022-07-29T07:18:11;96726.66;;;23.87;74.35
13434;BME280;6789;47.678;9.158;2022-07-29T07:23:06;96717.00;;;23.77;75.75
13434;BME280;6789;47.678;9.158;2022-07-29T07:28:12;96711.91;;;23.24;79.29
13434;BME280;6789;47.678;9.158;2022-07-29T07:33:05;96717.25;;;23.68;75.29
13434;BME280;6789;47.678;9.158;2022-07-29T07:37:59;96733.44;;;23.84;77.23
13434;BME280;6789;47.678;9.158;2022-07-29T07:43:06;96739.28;;;24.25;74.76
13434;BME280;6789;47.678;9.158;2022-07-29T07:48:12;96723.19;;;24.25;73.89
13434;BME280;6789;47.678;9.158;2022-07-29T07:53:18;96727.47;;;24.82;72.33
13434;BME280;6789;47.678;9.158;2022-07-29T07:58:24;96731.97;;;25.20;67.63
13434;BME280;6789;47.678;9.158;2022-07-29T08:03:30;96729.38;;;25.66;65.92
13434;BME280;6789;47.678;9.158;2022-07-29T08:08:35;96731.78;;;25.76;66.18
13434;BME280;6789;47.678;9.158;2022-07-29T08:13:31;96727.66;;;25.78;65.65
13434;BME280;6789;47.678;9.158;2022-07-29T08:18:32;96725.09;;;25.90;64.93
13434;BME280;6789;47.678;9.158;2022-07-29T08:23:38;96722.75;;;26.26;62.36
13434;BME280;6789;47.678;9.158;2022-07-29T08:28:45;96717.69;;;26.24;62.91
13434;BME280;6789;47.678;9.158;2022-07-29T08:33:54;96727.38;;;26.54;60.11
13434;BME280;6789;47.678;9.158;2022-07-29T08:39:04;96721.69;;;25.47;62.55
13434;BME280;6789;47.678;9.158;2022-07-29T08:44:11;96735.13;;;25.14;63.18
13434;BME280;6789;47.678;9.158;2022-07-29T08:49:17;96735.53;;;24.90;64.04
13434;BME280;6789;47.678;9.158;2022-07-29T08:54:23;96740.44;;;24.88;65.91
13434;BME280;6789;47.678;9.158;2022-07-29T08:59:31;96750.25;;;25.01;62.98
13434;BME280;6789;47.678;9.158;2022-07-29T09:04:40;96761.63;;;25.15;63.48
13434;BME280;6789;47.678;9.158;2022-07-29T09:09:46;96765.13;;;25.16;62.18
13434;BME280;6789;47.678;9.158;2022-07-29T09:14:53;96765.91;;;25.16;61.76
13434;BME280;6789;47.678;9.158;2022-07-29T09:20:13;96767.81;;;25.32;61.39
13434;BME280;6789;47.678;9.158;2022-07-29T09:26:09;96776.69;;;25.33;61.40
13434;BME280;6789;47.678;9.158;2022-07-29T09:31:37;96764.34;;;25.32;62.02
13434;BME280;6789;47.678;9.158;2022-07-29T09:36:50;96771.31;;;25.33;61.34
13434;BME280;6789;47.678;9.158;2022-07-29T09:41:56;96773.50;;;25.14;65.25
13434;BME280;6789;47.678;9.158;2022-07-29T09:47:04;96765.72;;;24.96;65.19
13434;BME280;6789;47.678;9.158;2022-07-29T09:52:14;96760.69;;;25.28;64.11
13434;BME280;6789;47.678;9.158;2022-07-29T09:57:27;96752.28;;;25.04;65.58
13434;BME280;6789;47.678;9.158;2022-07-29T10:02:38;96758.09;;;24.81;67.61
13434;BME280;6789;47.678;9.158;2022-07-29T10:07:57;96757.31;;;24.33;69.97
13434;BME280;6789;47.678;9.158;2022-07-29T10:13:09;96751.94;;;24.80;67.40
13434;BME280;6789;47.678;9.158;2022-07-29T10:18:17;96740.16;;;25.15;64.29
13434;BME280;6789;47.678;9.158;2022-07-29T10:23:30;96740.78;;;25.63;62.04
13434;BME280;6789;47.678;9.158;2022-07-29T10:28:36;96735.94;;;26.10;60.22
13434;BME280;6789;47.678;9.158;2022-07-29T10:34:06;96728.41;;;26.33;58.18
13434;BME280;6789;47.678;9.158;2022-07-29T10:45:37;96728.63;;;27.46;52.82
13434;BME280;6789;47.678;9.158;2022-07-29T10:51:12;96714.41;;;27.78;50.59
13434;BME280;6789;47.678;9.158;2022-07-29T10:56:32;96723.91;;;27.64;50.88
13434;BME280;6789;47.678;9.158;2022-07-29T11:01:54;96719.03;;;27.37;51.48
13434;BME280;6789;47.678;9.158;2022-07-29T11:23:28;96705.06;;;28.44;49.58
13434;BME280;6789;47.678;9.158;2022-07-29T11:34:32;96689.66;;;28.56;47.19
13434;BME280;6789;47.678;9.158;2022-07-29T11:45:13;96699.66;;;28.20;48.56
13434;BME280;6789;47.678;9.158;2022-07-29T11:50:34;96694.78;;;28.02;48.51
13434;BME280;6789;47.678;9.158;2022-07-29T11:55:41;96686.53;;;27.54;49.62
13434;BME280;6789;47.678;9.158;2022-07-29T12:00:50;96691.50;;;26.70;51.36
13434;BME280;6789;47.678;9.158;2022-07-29T12:05:44;96696.81;;;26.79;52.66
13434;BME280;6789;47.678;9.158;2022-07-29T12:10:51;96699.03;;;27.06;51.25
13434;BME280;6789;47.678;9.158;2022-07-29T12:15:54;96689.66;;;27.44;49.42
13434;BME280;6789;47.678;9.158;2022-07-29T12:21:02;96683.81;;;27.62;50.33
13434;BME280;6789;47.678;9.158;2022-07-29T12:26:06;96686.94;;;27.64;50.67
13434;BME280;6789;47.678;9.158;2022-07-29T12:31:27;96676.19;;;27.88;50.22
13434;BME280;6789;47.678;9.158;2022-07-29T12:36:34;96679.13;;;27.83;51.82
13434;BME280;6789;47.678;9.158;2022-07-29T12:41:44;96668.63;;;28.38;50.11
13434;BME280;6789;47.678;9.158;2022-07-29T12:47:03;96667.78;;;28.85;49.21
13434;BME280;6789;47.678;9.158;2022-07-29T12:51:56;96665.22;;;28.65;50.11
13434;BME280;6789;47.678;9.158;2022-07-29T12:56:59;96664.50;;;29.03;50.54
13434;BME280;6789;47.678;9.158;2022-07-29T13:02:05;96665.22;;;28.77;51.35
13434;BME280;6789;47.678;9.158;2022-07-29T13:07:01;96661.34;;;29.01;51.42
13434;BME280;6789;47.678;9.158;2022-07-29T13:11:55;96669.91;;;29.03;51.48
13434;BME280;6789;47.678;9.158;2022-07-29T13:22:02;96671.31;;;28.62;51.78
13434;BME280;6789;47.678;9.158;2022-07-29T13:26:54;96680.09;;;28.35;54.54
13434;BME280;6789;47.678;9.158;2022-07-29T13:31:47;96673.22;;;28.14;55.52
13434;BME280;6789;47.678;9.158;2022-07-29T13:36:38;96680.97;;;27.39;58.82
13434;BME280;6789;47.678;9.158;2022-07-29T13:41:32;96676.84;;;26.60;61.83
13434;BME280;6789;47.678;9.158;2022-07-29T13:46:39;96682.69;;;26.33;62.36
13434;BME280;6789;47.678;9.158;2022-07-29T13:51:35;96680.53;;;26.75;59.66
13434;BME280;6789;47.678;9.158;2022-07-29T13:56:41;96687.63;;;26.80;59.56
13434;BME280;6789;47.678;9.158;2022-07-29T14:01:34;96678.59;;;27.25;57.96
13434;BME280;6789;47.678;9.158;2022-07-29T14:06:26;96678.66;;;27.49;56.30
13434;BME280;6789;47.678;9.158;2022-07-29T14:11:20;96700.09;;;27.45;52.01
13434;BME280;6789;47.678;9.158;2022-07-29T14:16:12;96698.34;;;27.49;52.32
13434;BME280;6789;47.678;9.158;2022-07-29T14:21:08;96696.97;;;27.43;52.88
13434;BME280;6789;47.678;9.158;2022-07-29T14:26:01;96712.94;;;27.08;57.46
13434;BME280;6789;47.678;9.158;2022-07-29T14:30:53;96746.50;;;26.61;61.63
13434;BME280;6789;47.678;9.158;2022-07-29T14:35:45;96748.03;;;25.88;65.34
13434;BME280;6789;47.678;9.158;2022-07-29T14:40:37;96764.66;;;25.22;68.72
13434;BME280;6789;47.678;9.158;2022-07-29T14:45:30;96763.91;;;24.57;70.94
13434;BME280;6789;47.678;9.158;2022-07-29T14:50:23;96767.78;;;23.82;74.43
13434;BME280;6789;47.678;9.158;2022-07-29T14:55:22;96781.56;;;23.32;78.66
13434;BME280;6789;47.678;9.158;2022-07-29T15:00:28;96778.78;;;22.89;81.17
13434;BME280;6789;47.678;9.158;2022-07-29T15:05:30;96795.25;;;22.69;81.80
13434;BME280;6789;47.678;9.158;2022-07-29T15:10:27;96801.41;;;22.42;83.11
13434;BME280;6789;47.678;9.158;2022-07-29T15:15:24;96804.31;;;22.14;82.85
13434;BME280;6789;47.678;9.158;2022-07-29T15:20:24;96789.03;;;22.01;84.56
13434;BME280;6789;47.678;9.158;2022-07-29T15:25:23;96803.78;;;21.99;85.72
13434;BME280;6789;47.678;9.158;2022-07-29T15:30:32;96798.81;;;21.92;85.63
13434;BME280;6789;47.678;9.158;2022-07-29T15:35:29;96798.66;;;22.02;84.83
13434;BME280;6789;47.678;9.158;2022-07-29T15:40:31;96802.50;;;21.96;87.12
13434;BME280;6789;47.678;9.158;2022-07-29T15:45:42;96802.50;;;21.96;87.25
13434;BME280;6789;47.678;9.158;2022-07-29T15:51:25;96807.09;;;21.77;87.96
13434;BME280;6789;47.678;9.158;2022-07-29T15:56:32;96806.75;;;21.65;88.41
13434;BME280;6789;47.678;9.158;2022-07-29T16:01:42;96819.09;;;21.61;88.89
13434;BME280;6789;47.678;9.158;2022-07-29T16:06:49;96814.34;;;21.58;88.34
13434;BME280;6789;47.678;9.158;2022-07-29T16:11:55;96811.16;;;21.75;88.06
13434;BME280;6789;47.678;9.158;2022-07-29T16:16:48;96806.25;;;21.63;88.26
13434;BME280;6789;47.678;9.158;2022-07-29T16:21:41;96800.56;;;21.70;88.02
13434;BME280;6789;47.678;9.158;2022-07-29T16:26:34;96801.13;;;21.67;88.02
13434;BME280;6789;47.678;9.158;2022-07-29T16:31:32;96793.13;;;21.49;88.15
13434;BME280;6789;47.678;9.158;2022-07-29T16:36:46;96786.25;;;21.43;87.76
13434;BME280;6789;47.678;9.158;2022-07-29T16:41:53;96794.22;;;21.29;88.47
13434;BME280;6789;47.678;9.158;2022-07-29T16:46:59;96801.66;;;21.32;88.39
13434;BME280;6789;47.678;9.158;2022-07-29T16:52:06;96803.59;;;21.27;88.13
13434;BME280;6789;47.678;9.158;2022-07-29T16:57:13;96794.63;;;21.18;88.06
13434;BME280;6789;47.678;9.158;2022-07-29T17:02:19;96805.81;;;21.20;88.28
13434;BME280;6789;47.678;9.158;2022-07-29T17:07:12;96813.72;;;20.88;90.17
13434;BME280;6789;47.678;9.158;2022-07-29T17:12:12;96809.47;;;20.87;90.18
13434;BME280;6789;47.678;9.158;2022-07-29T17:17:18;96824.31;;;20.75;90.48
13434;BME280;6789;47.678;9.158;2022-07-29T17:22:25;96825.09;;;20.75;90.97
13434;BME280;6789;47.678;9.158;2022-07-29T17:27:23;96834.22;;;20.92;89.67
13434;BME280;6789;47.678;9.158;2022-07-29T17:32:29;96834.44;;;20.96;89.49
13434;BME280;6789;47.678;9.158;2022-07-29T17:37:40;96843.19;;;21.20;87.77
13434;BME280;6789;47.678;9.158;2022-07-29T17:42:46;96843.09;;;21.25;87.08
13434;BME280;6789;47.678;9.158;2022-07-29T17:47:52;96843.72;;;20.98;86.73
13434;BME280;6789;47.678;9.158;2022-07-29T17:53:00;96846.03;;;20.86;87.36
13434;BME280;6789;47.678;9.158;2022-07-29T17:58:06;96846.47;;;20.70;88.20
13434;BME280;6789;47.678;9.158;2022-07-29T18:03:16;96841.91;;;20.94;87.18
13434;BME280;6789;47.678;9.158;2022-07-29T18:08:23;96854.31;;;20.85;87.33
13434;BME280;6789;47.678;9.158;2022-07-29T18:13:24;96854.31;;;20.85;86.50
13434;BME280;6789;47.678;9.158;2022-07-29T18:18:17;96858.06;;;20.84;87.42
13434;BME280;6789;47.678;9.158;2022-07-29T18:23:18;96859.03;;;21.11;85.42
13434;BME280;6789;47.678;9.158;2022-07-29T18:28:24;96860.84;;;21.16;86.08
13434;BME280;6789;47.678;9.158;2022-07-29T18:33:30;96861.06;;;21.38;83.16
13434;BME280;6789;47.678;9.158;2022-07-29T18:38:27;96868.50;;;21.41;84.33
13434;BME280;6789;47.678;9.158;2022-07-29T18:43:20;96868.72;;;21.26;85.61
13434;BME280;6789;47.678;9.158;2022-07-29T18:48:26;96874.38;;;21.01;85.64
13434;BME280;6789;47.678;9.158;2022-07-29T18:53:32;96885.25;;;20.86;86.36
13434;BME280;6789;47.678;9.158;2022-07-29T18:58:40;96893.91;;;20.68;85.96
13434;BME280;6789;47.678;9.158;2022-07-29T19:03:45;96891.91;;;20.60;85.59
13434;BME280;6789;47.678;9.158;2022-07-29T19:08:41;96891.38;;;20.58;86.24
13434;BME280;6789;47.678;9.158;2022-07-29T19:13:50;96882.53;;;20.63;85.22
13434;BME280;6789;47.678;9.158;2022-07-29T19:18:56;96883.66;;;20.57;86.61
13434;BME280;6789;47.678;9.158;2022-07-29T19:24:03;96884.94;;;20.36;86.61
13434;BME280;6789;47.678;9.158;2022-07-29T19:29:05;96897.00;;;20.28;87.48
13434;BME280;6789;47.678;9.158;2022-07-29T19:34:01;96899.72;;;20.23;87.35
13434;BME280;6789;47.678;9.158;2022-07-29T19:38:53;96908.19;;;20.30;87.61
13434;BME280;6789;47.678;9.158;2022-07-29T19:43:44;96910.81;;;20.35;86.26
13434;BME280;6789;47.678;9.158;2022-07-29T19:48:44;96917.09;;;20.44;85.27
13434;BME280;6789;47.678;9.158;2022-07-29T19:53:36;96922.81;;;20.61;84.88
13434;BME280;6789;47.678;9.158;2022-07-29T19:58:28;96920.50;;;20.50;85.52
13434;BME280;6789;47.678;9.158;2022-07-29T20:03:20;96922.25;;;20.36;85.97
13434;BME280;6789;47.678;9.158;2022-07-29T20:08:12;96933.94;;;20.11;87.26
13434;BME280;6789;47.678;9.158;2022-07-29T20:13:04;96934.66;;;19.79;88.29
13434;BME280;6789;47.678;9.158;2022-07-29T20:17:56;96937.00;;;19.90;87.43
13434;BME280;6789;47.678;9.158;2022-07-29T20:22:48;96938.56;;;19.91;86.47
13434;BME280;6789;47.678;9.158;2022-07-29T20:27:40;96945.22;;;19.99;86.84
13434;BME280;6789;47.678;9.158;2022-07-29T20:32:32;96944.63;;;20.02;87.99
13434;BME280;6789;47.678;9.158;2022-07-29T20:37:25;96940.44;;;19.96;88.01
13434;BME280;6789;47.678;9.158;2022-07-29T20:42:17;96955.63;;;19.85;88.89
13434;BME280;6789;47.678;9.158;2022-07-29T20:47:09;96944.75;;;19.38;90.65
13434;BME280;6789;47.678;9.158;2022-07-29T20:52:02;96957.38;;;19.08;92.58
13434;BME280;6789;47.678;9.158;2022-07-29T20:56:54;96953.66;;;19.04;93.47
13434;BME280;6789;47.678;9.158;2022-07-29T21:01:46;96953.09;;;19.07;93.44
13434;BME280;6789;47.678;9.158;2022-07-29T21:06:39;96943.06;;;18.94;94.59
13434;BME280;6789;47.678;9.158;2022-07-29T21:11:39;96947.34;;;18.70;95.11
13434;BME280;6789;47.678;9.158;2022-07-29T21:16:35;96947.66;;;18.54;97.29
13434;BME280;6789;47.678;9.158;2022-07-29T21:21:29;96950.59;;;18.48;98.41
13434;BME280;6789;47.678;9.158;2022-07-29T21:26:24;96954.31;;;18.42;98.85
13434;BME280;6789;47.678;9.158;2022-07-29T21:31:18;96942.34;;;18.59;97.93
13434;BME280;6789;47.678;9.158;2022-07-29T21:36:11;96947.66;;;18.64;97.97
13434;BME280;6789;47.678;9.158;2022-07-29T21:41:23;96946.88;;;18.49;98.21
13434;BME280;6789;47.678;9.158;2022-07-29T21:46:19;96947.06;;;18.87;96.99
13434;BME280;6789;47.678;9.158;2022-07-29T21:51:15;96940.75;;;18.58;97.57
13434;BME280;6789;47.678;9.158;2022-07-29T21:56:11;96945.28;;;18.48;98.87
13434;BME280;6789;47.678;9.158;2022-07-29T22:01:08;96948.16;;;18.76;96.27
13434;BME280;6789;47.678;9.158;2022-07-29T22:06:00;96942.09;;;18.46;97.75
13434;BME280;6789;47.678;9.158;2022-07-29T22:10:52;96943.47;;;18.28;99.17
13434;BME280;6789;47.678;9.158;2022-07-29T22:15:44;96947.16;;;18.32;99.44
13434;BME280;6789;47.678;9.158;2022-07-29T22:20:38;96937.84;;;18.35;99.05
13434;BME280;6789;47.678;9.158;2022-07-29T22:25:32;96931.50;;;18.26;99.37
13434;BME280;6789;47.678;9.158;2022-07-29T22:30:24;96941.56;;;18.49;97.68
13434;BME280;6789;47.678;9.158;2022-07-29T22:35:17;96936.00;;;18.45;97.97
13434;BME280;6789;47.678;9.158;2022-07-29T22:40:09;96939.97;;;18.33;97.87
13434;BME280;6789;47.678;9.158;2022-07-29T22:45:02;96935.72;;;18.27;99.27
13434;BME280;6789;47.678;9.158;2022-07-29T22:49:57;96937.84;;;18.05;99.71
13434;BME280;6789;47.678;9.158;2022-07-29T22:55:04;96938.66;;;17.95;100.00
13434;BME280;6789;47.678;9.158;2022-07-29T22:59:57;96939.47;;;18.26;99.55
13434;BME280;6789;47.678;9.158;2022-07-29T23:04:52;96932.00;;;18.03;99.47
13434;BME280;6789;47.678;9.158;2022-07-29T23:09:44;96928.53;;;18.12;99.27
13434;BME280;6789;47.678;9.158;2022-07-29T23:14:36;96932.56;;;18.25;98.70
13434;BME280;6789;47.678;9.158;2022-07-29T23:19:28;96924.84;;;18.03;99.79
13434;BME280;6789;47.678;9.158;2022-07-29T23:24:20;96928.81;;;18.06;99.88
13434;BME280;6789;47.678;9.158;2022-07-29T23:29:12;96927.25;;;18.25;99.52
13434;BME280;6789;47.678;9.158;2022-07-29T23:34:04;96925.09;;;18.47;97.50
13434;BME280;6789;47.678;9.158;2022-07-29T23:38:56;96925.63;;;18.19;98.78
13434;BME280;6789;47.678;9.158;2022-07-29T23:43:49;96919.00;;;17.96;100.00
13434;BME280;6789;47.678;9.158;2022-07-29T23:48:41;96914.47;;;17.77;100.00
13434;BME280;6789;47.678;9.158;2022-07-29T23:53:36;96908.34;;;17.62;100.00
13434;BME280;6789;47.678;9.158;2022-07-29T23:58:44;96909.41;;;17.51;100.00
